Saint Paul, Illinois
Current Conditions -  °F | °C
As of 4:35 PM on Monday 20 Oct 2014 (Local Time) from KSLO Reporting Station
Clear Clear  
Wind Chill: 73°   Ceiling: Unl
Heat Index: 73°   Visibility: 10mi
Dew Point: 43°   Wind: 15mph
Humidity: 34%   Direction: 280°W
Pressure: 29.91"   Gusts: 20mph
Location:  38.868°N, 88.8641°W
Report Text: KSLO 202135Z AUTO 28013G17KT 10SM CLR 23/06 A2991 RMK AO2 T02280061
Loading
Personal Weather Stations






























Interactive Weather Map
Tropical Storm Tracking
New forecast layout! Learn more

10-Day Weather Forecast

Advertisements
Track Severe Weather on mobile